Terminal Aerodrome Forecast
Issued by NWS Central Illinois

Home | Current Version | Previous Version | Text Only | Print | Product List | Glossary On
Versions: 1 2 3 4 5 6 7 8 9 10 11 12 13 14 15 16 17
000
FTUS43 KILX 290521
TAFSPI
TAF
KSPI 290521Z 2906/3006 33008KT P6SM BKN080
     FM291200 35012KT P6SM BKN030
     FM291500 36012G20KT P6SM BKN030
     FM291700 36012G20KT P6SM VCSH OVC020
     FM292200 36011KT P6SM OVC030
     FM300400 01009KT P6SM VCSH OVC015=

USA.gov is the U.S. government's official web portal to all federal, state and local government web resources and services.